Time;durP1;ratioP1;P1;durP2;ratioP2;P2;SDS_P1;SDS_P2;PMS_P1;PMS_P2;Temp;Humidity;BMP_temperature;BMP_pressure;BME280_temperature;BME280_humidity;BME280_pressure;Samples;Min_cycle;Max_cycle;Signal;HPM_P1;HPM_P2
2022/03/31 00:00:30;;;;;;;16.17;8.35;;;;;;;;;;4974915;28;20034;-79
2022/03/31 00:02:55;;;;;;;17.85;9.35;;;;;;;;;;4975098;28;20037;-79
2022/03/31 00:05:20;;;;;;;20.83;9.57;;;;;;;;;;4973358;28;20685;-79
2022/03/31 00:07:45;;;;;;;20.27;9.50;;;;;;;;;;4975181;28;20109;-79
2022/03/31 00:10:11;;;;;;;18.75;10.00;;;;;;;;;;4958339;28;20045;-79
2022/03/31 00:12:36;;;;;;;18.38;9.75;;;;;;;;;;4974783;28;20506;-79
2022/03/31 00:15:01;;;;;;;17.70;9.43;;;;;;;;;;4973712;28;20070;-79
2022/03/31 00:17:26;;;;;;;17.08;9.98;;;;;;;;;;4974690;28;20041;-79
2022/03/31 00:19:52;;;;;;;19.20;10.02;;;;;;;;;;4973372;28;20031;-79
2022/03/31 00:22:17;;;;;;;21.55;10.88;;;;;;;;;;4974075;28;20046;-79
2022/03/31 00:24:42;;;;;;;29.00;11.02;;;;;;;;;;4974809;28;20035;-79
2022/03/31 00:27:08;;;;;;;18.92;9.85;;;;;;;;;;4975087;28;20407;-79
2022/03/31 00:29:33;;;;;;;21.52;10.85;;;;;;;;;;4974597;28;20045;-79
2022/03/31 00:31:58;;;;;;;24.55;12.38;;;;;;;;;;4973234;28;20033;-79
2022/03/31 00:34:24;;;;;;;22.52;11.60;;;;;;;;;;4972682;28;20146;-79
2022/03/31 00:36:49;;;;;;;20.65;10.98;;;;;;;;;;4974362;28;20051;-79
2022/03/31 00:39:29;;;;;;;22.90;11.48;;;;;;;;;;4973340;28;20030;-79
2022/03/31 00:41:54;;;;;;;24.42;11.20;;;;;;;;;;4974463;28;20196;-79
2022/03/31 00:44:20;;;;;;;22.27;10.93;;;;;;;;;;4975276;28;20484;-79
2022/03/31 00:46:45;;;;;;;21.17;11.18;;;;;;;;;;4974691;28;20030;-79
2022/03/31 00:49:10;;;;;;;18.40;10.27;;;;;;;;;;4973736;28;20089;-78
2022/03/31 00:51:35;;;;;;;19.33;10.88;;;;;;;;;;4976481;28;20118;-79
2022/03/31 00:54:01;;;;;;;20.85;10.90;;;;;;;;;;4975149;28;20031;-79
2022/03/31 00:56:26;;;;;;;21.52;10.48;;;;;;;;;;4972567;28;20476;-79
2022/03/31 00:58:51;;;;;;;17.92;10.05;;;;;;;;;;4972862;28;20031;-79
2022/03/31 01:01:16;;;;;;;17.10;10.38;;;;;;;;;;4974439;28;20468;-79
2022/03/31 01:03:42;;;;;;;19.00;10.13;;;;;;;;;;4972701;28;20035;-80
2022/03/31 01:06:07;;;;;;;18.50;10.50;;;;;;;;;;4972614;28;20031;-79
2022/03/31 01:08:32;;;;;;;22.20;10.60;;;;;;;;;;4973821;28;20031;-79
2022/03/31 01:10:58;;;;;;;20.13;10.35;;;;;;;;;;4974072;28;20462;-79
2022/03/31 01:13:23;;;;;;;25.30;11.75;;;;;;;;;;4973789;28;20089;-78
2022/03/31 01:15:48;;;;;;;31.13;14.32;;;;;;;;;;4972802;28;20058;-79
2022/03/31 01:18:14;;;;;;;36.75;13.95;;;;;;;;;;4974191;28;20034;-79
2022/03/31 01:20:39;;;;;;;40.17;16.38;;;;;;;;;;4973803;28;20114;-79
2022/03/31 01:23:04;;;;;;;23.60;12.35;;;;;;;;;;4974061;28;20502;-79
2022/03/31 01:25:29;;;;;;;19.50;10.60;;;;;;;;;;4974538;28;20035;-79
2022/03/31 01:27:55;;;;;;;27.17;13.45;;;;;;;;;;4973613;28;20038;-80
2022/03/31 01:30:20;;;;;;;27.38;12.00;;;;;;;;;;4972249;28;20042;-79
2022/03/31 01:32:46;;;;;;;17.83;10.45;;;;;;;;;;4973995;28;20039;-79
2022/03/31 01:35:11;;;;;;;23.23;11.80;;;;;;;;;;4971994;28;20027;-79
2022/03/31 01:37:36;;;;;;;18.50;11.38;;;;;;;;;;4974071;28;20027;-79
2022/03/31 01:40:02;;;;;;;22.25;10.95;;;;;;;;;;4973479;28;20483;-79
2022/03/31 01:42:27;;;;;;;18.73;11.23;;;;;;;;;;4972294;28;20031;-79
2022/03/31 01:44:52;;;;;;;22.08;12.90;;;;;;;;;;4955693;28;20037;-79
2022/03/31 01:47:18;;;;;;;23.30;11.57;;;;;;;;;;4973816;28;20039;-79
2022/03/31 01:49:43;;;;;;;20.05;10.90;;;;;;;;;;4973663;28;20045;-79
2022/03/31 01:52:08;;;;;;;15.77;9.45;;;;;;;;;;4972011;28;20042;-78
2022/03/31 01:54:34;;;;;;;16.70;9.88;;;;;;;;;;4972799;28;20384;-79
2022/03/31 01:56:59;;;;;;;14.32;9.77;;;;;;;;;;4973320;28;20034;-79
2022/03/31 01:59:24;;;;;;;17.23;9.55;;;;;;;;;;4973130;28;20039;-78
2022/03/31 02:01:49;;;;;;;19.85;9.80;;;;;;;;;;4973091;28;20051;-79
2022/03/31 02:04:15;;;;;;;16.23;10.13;;;;;;;;;;4973606;28;20038;-79
2022/03/31 02:06:40;;;;;;;17.80;10.20;;;;;;;;;;4972334;28;20086;-79
2022/03/31 02:09:06;;;;;;;16.42;9.52;;;;;;;;;;4972427;28;20455;-79
2022/03/31 02:11:32;;;;;;;17.90;9.20;;;;;;;;;;4956619;28;20038;-79
2022/03/31 02:13:58;;;;;;;16.48;9.48;;;;;;;;;;4972635;28;20039;-79
2022/03/31 02:16:23;;;;;;;16.10;9.27;;;;;;;;;;4973933;28;20121;-78
2022/03/31 02:18:49;;;;;;;16.92;10.20;;;;;;;;;;4971912;28;20038;-79
2022/03/31 02:21:15;;;;;;;21.75;11.50;;;;;;;;;;4973467;28;20097;-79
2022/03/31 02:23:40;;;;;;;16.42;9.25;;;;;;;;;;4973020;28;20046;-79
2022/03/31 02:26:05;;;;;;;17.95;11.23;;;;;;;;;;4973259;28;20045;-79
2022/03/31 02:28:31;;;;;;;16.42;9.77;;;;;;;;;;4971740;28;20133;-79
2022/03/31 02:30:56;;;;;;;15.02;9.55;;;;;;;;;;4972818;28;20487;-79
2022/03/31 02:33:21;;;;;;;18.50;10.52;;;;;;;;;;4972906;28;20047;-78
2022/03/31 02:35:47;;;;;;;14.35;9.85;;;;;;;;;;4972974;28;20118;-79
2022/03/31 02:38:12;;;;;;;21.27;11.10;;;;;;;;;;4973322;28;20380;-79
2022/03/31 02:40:37;;;;;;;17.38;10.32;;;;;;;;;;4972827;28;20483;-79
2022/03/31 02:43:03;;;;;;;18.05;10.23;;;;;;;;;;4972297;28;20086;-79
2022/03/31 02:45:28;;;;;;;20.15;10.15;;;;;;;;;;4973282;28;20043;-79
2022/03/31 02:47:54;;;;;;;14.80;9.27;;;;;;;;;;4976371;28;20035;-79
2022/03/31 02:50:19;;;;;;;16.80;9.88;;;;;;;;;;4976539;28;20112;-79
2022/03/31 02:55:28;;;;;;;17.23;9.68;;;;;;;;;;4976024;28;20042;-79
2022/03/31 02:57:54;;;;;;;22.33;11.60;;;;;;;;;;4959065;28;20027;-79
2022/03/31 03:00:19;;;;;;;19.35;10.90;;;;;;;;;;4976200;28;20066;-79
2022/03/31 03:02:44;;;;;;;20.35;10.85;;;;;;;;;;4975426;28;20035;-79
2022/03/31 03:05:09;;;;;;;17.50;11.45;;;;;;;;;;4975732;28;20034;-80
2022/03/31 03:07:35;;;;;;;20.50;11.55;;;;;;;;;;4974911;28;20030;-80
2022/03/31 03:10:00;;;;;;;19.45;11.90;;;;;;;;;;4975953;28;20027;-79
2022/03/31 03:12:25;;;;;;;16.60;9.63;;;;;;;;;;4975093;28;20467;-78
2022/03/31 03:14:51;;;;;;;18.95;10.80;;;;;;;;;;4976045;28;20062;-79
2022/03/31 03:17:17;;;;;;;21.10;12.13;;;;;;;;;;4958361;28;20027;-79
2022/03/31 03:19:42;;;;;;;19.17;10.85;;;;;;;;;;4976432;28;20074;-79
2022/03/31 03:22:07;;;;;;;18.38;10.05;;;;;;;;;;4975815;28;20034;-79
2022/03/31 03:24:33;;;;;;;17.33;10.23;;;;;;;;;;4974127;28;20125;-79
2022/03/31 03:26:58;;;;;;;18.30;10.52;;;;;;;;;;4974247;28;20034;-79
2022/03/31 03:29:23;;;;;;;20.65;11.52;;;;;;;;;;4976502;28;20118;-79
2022/03/31 03:31:51;;;;;;;17.42;11.02;;;;;;;;;;4974377;28;20077;-79
2022/03/31 03:34:16;;;;;;;18.65;10.88;;;;;;;;;;4974084;28;20062;-78
2022/03/31 03:36:41;;;;;;;20.23;11.38;;;;;;;;;;4975293;28;20403;-79
2022/03/31 03:39:06;;;;;;;20.13;12.02;;;;;;;;;;4976382;28;20082;-79
2022/03/31 03:41:32;;;;;;;19.38;11.45;;;;;;;;;;4976377;28;20404;-79
2022/03/31 03:43:57;;;;;;;20.42;11.43;;;;;;;;;;4975202;28;20126;-78
2022/03/31 03:46:23;;;;;;;19.17;12.20;;;;;;;;;;4976299;28;20038;-79
2022/03/31 03:48:48;;;;;;;19.13;12.20;;;;;;;;;;4975542;28;20078;-79
2022/03/31 03:51:14;;;;;;;17.98;11.30;;;;;;;;;;4975649;28;20464;-79
2022/03/31 03:53:39;;;;;;;17.02;10.88;;;;;;;;;;4975611;28;20034;-79
2022/03/31 03:56:05;;;;;;;22.58;10.90;;;;;;;;;;4973450;28;20435;-79
2022/03/31 03:58:30;;;;;;;19.75;11.55;;;;;;;;;;4973846;28;20038;-79
2022/03/31 04:00:55;;;;;;;17.17;11.07;;;;;;;;;;4974505;28;20069;-79
2022/03/31 04:03:21;;;;;;;19.92;11.35;;;;;;;;;;4958265;28;20522;-78
2022/03/31 04:05:46;;;;;;;15.23;9.65;;;;;;;;;;4973277;28;20043;-79
2022/03/31 04:08:11;;;;;;;15.43;9.57;;;;;;;;;;4976441;28;20062;-78
2022/03/31 04:10:36;;;;;;;20.95;11.60;;;;;;;;;;4976168;28;20047;-79
2022/03/31 04:13:02;;;;;;;19.73;11.75;;;;;;;;;;4974976;28;20181;-79
2022/03/31 04:15:27;;;;;;;20.23;13.00;;;;;;;;;;4974244;28;20046;-79
2022/03/31 04:17:52;;;;;;;16.50;11.38;;;;;;;;;;4974518;28;20046;-77
2022/03/31 04:20:18;;;;;;;18.20;11.15;;;;;;;;;;4973590;28;20042;-78
2022/03/31 04:22:43;;;;;;;20.10;11.00;;;;;;;;;;4976696;28;20122;-79
2022/03/31 04:25:08;;;;;;;19.67;11.95;;;;;;;;;;4973000;28;20089;-79
2022/03/31 04:27:33;;;;;;;19.50;11.27;;;;;;;;;;4974293;28;20043;-79
2022/03/31 04:29:58;;;;;;;14.98;10.43;;;;;;;;;;4974104;28;20039;-79
2022/03/31 04:32:24;;;;;;;19.27;11.57;;;;;;;;;;4974867;28;20042;-78
2022/03/31 04:34:49;;;;;;;21.70;13.90;;;;;;;;;;4974722;28;20034;-79
2022/03/31 04:37:15;;;;;;;18.67;11.35;;;;;;;;;;4974372;28;20051;-79
2022/03/31 04:39:40;;;;;;;20.15;12.00;;;;;;;;;;4973396;28;20035;-79
2022/03/31 04:42:05;;;;;;;19.77;11.20;;;;;;;;;;4974967;28;20039;-78
2022/03/31 04:44:30;;;;;;;22.75;11.90;;;;;;;;;;4974367;28;20483;-78
2022/03/31 04:46:56;;;;;;;21.95;12.27;;;;;;;;;;4958808;28;20041;-78
2022/03/31 04:49:21;;;;;;;16.42;10.73;;;;;;;;;;4975737;28;20524;-78
2022/03/31 04:51:46;;;;;;;20.02;11.93;;;;;;;;;;4975737;28;20590;-78
2022/03/31 04:54:11;;;;;;;15.77;10.65;;;;;;;;;;4974016;28;20045;-79
2022/03/31 04:56:39;;;;;;;17.48;10.55;;;;;;;;;;4974819;28;20053;-79
2022/03/31 04:59:04;;;;;;;18.63;11.68;;;;;;;;;;4973919;28;20031;-78
2022/03/31 05:01:29;;;;;;;19.75;13.00;;;;;;;;;;4973895;28;20081;-78
2022/03/31 05:03:54;;;;;;;19.77;11.65;;;;;;;;;;4973322;28;20062;-78
2022/03/31 05:06:20;;;;;;;22.48;12.32;;;;;;;;;;4973955;28;20031;-78
2022/03/31 05:08:45;;;;;;;18.27;11.75;;;;;;;;;;4973539;28;20097;-79
2022/03/31 05:11:10;;;;;;;20.73;11.25;;;;;;;;;;4973435;28;20115;-78
2022/03/31 05:13:35;;;;;;;17.55;11.25;;;;;;;;;;4973508;28;20050;-80
2022/03/31 05:16:02;;;;;;;19.48;11.68;;;;;;;;;;4973473;28;20030;-79
2022/03/31 05:18:27;;;;;;;24.42;12.18;;;;;;;;;;4972433;28;20046;-79
2022/03/31 05:20:52;;;;;;;18.27;11.50;;;;;;;;;;4972834;28;20038;-79
2022/03/31 05:23:18;;;;;;;22.10;12.90;;;;;;;;;;4973979;28;20517;-79
2022/03/31 05:25:43;;;;;;;20.65;13.15;;;;;;;;;;4972175;28;20034;-78
2022/03/31 05:28:09;;;;;;;23.30;13.75;;;;;;;;;;4974120;28;20023;-78
2022/03/31 05:30:35;;;;;;;20.65;13.13;;;;;;;;;;4974101;28;20046;-78
2022/03/31 05:33:00;;;;;;;20.52;12.63;;;;;;;;;;4975208;28;20099;-78
2022/03/31 05:35:27;;;;;;;21.35;13.73;;;;;;;;;;4972787;28;20039;-79
2022/03/31 05:37:53;;;;;;;21.35;13.25;;;;;;;;;;4973887;28;20093;-79
2022/03/31 05:40:18;;;;;;;22.23;14.32;;;;;;;;;;4973808;28;20482;-79
2022/03/31 05:42:43;;;;;;;26.95;15.80;;;;;;;;;;4973371;28;20122;-79
2022/03/31 05:45:15;;;;;;;26.70;15.85;;;;;;;;;;4973201;28;20035;-80
2022/03/31 05:47:40;;;;;;;24.40;15.02;;;;;;;;;;4971911;28;20062;-79
2022/03/31 05:50:06;;;;;;;25.13;15.48;;;;;;;;;;4955890;28;20090;-79
2022/03/31 05:52:31;;;;;;;25.77;15.73;;;;;;;;;;4973387;28;20030;-80
2022/03/31 05:54:57;;;;;;;27.77;16.13;;;;;;;;;;4972470;28;20089;-78
2022/03/31 05:57:22;;;;;;;25.35;15.30;;;;;;;;;;4973911;28;20037;-78
2022/03/31 05:59:47;;;;;;;25.65;15.55;;;;;;;;;;4972365;28;20042;-79
2022/03/31 06:02:12;;;;;;;22.02;13.27;;;;;;;;;;4972627;28;20038;-79
2022/03/31 06:04:38;;;;;;;26.98;16.02;;;;;;;;;;4956106;28;20043;-79
2022/03/31 06:07:03;;;;;;;28.40;16.40;;;;;;;;;;4972383;28;20045;-79
2022/03/31 06:09:28;;;;;;;33.72;16.02;;;;;;;;;;4972914;28;20046;-79
2022/03/31 06:11:53;;;;;;;36.03;16.23;;;;;;;;;;4972637;28;20031;-78
2022/03/31 06:14:19;;;;;;;29.30;17.02;;;;;;;;;;4974092;28;20514;-79
2022/03/31 06:16:44;;;;;;;30.02;17.15;;;;;;;;;;4973201;28;20130;-79
2022/03/31 06:19:09;;;;;;;26.60;16.40;;;;;;;;;;4972665;28;20484;-79
2022/03/31 06:21:34;;;;;;;209.15;66.68;;;;;;;;;;4974994;28;20070;-79
2022/03/31 06:24:00;;;;;;;41.65;18.55;;;;;;;;;;4976388;28;20038;-78
2022/03/31 06:26:26;;;;;;;29.75;17.00;;;;;;;;;;4977182;28;20041;-79
2022/03/31 06:28:51;;;;;;;22.83;14.68;;;;;;;;;;4977327;28;20039;-80
2022/03/31 06:31:16;;;;;;;26.35;16.42;;;;;;;;;;4976287;28;20039;-79
2022/03/31 06:33:41;;;;;;;24.67;14.57;;;;;;;;;;4978884;28;20045;-80
2022/03/31 06:36:07;;;;;;;27.30;14.95;;;;;;;;;;4977214;28;20050;-79
2022/03/31 06:38:33;;;;;;;26.15;15.05;;;;;;;;;;4978145;28;20388;-79
2022/03/31 06:41:10;;;;;;;29.80;15.48;;;;;;;;;;4977635;28;20046;-79
2022/03/31 06:43:35;;;;;;;28.95;15.88;;;;;;;;;;4976438;28;20088;-79
2022/03/31 06:46:01;;;;;;;27.58;15.82;;;;;;;;;;4975570;28;20129;-79
2022/03/31 06:48:26;;;;;;;29.48;17.38;;;;;;;;;;4977258;28;20118;-79
2022/03/31 06:50:51;;;;;;;24.70;14.65;;;;;;;;;;4976408;28;20034;-79
2022/03/31 06:53:17;;;;;;;30.20;16.73;;;;;;;;;;4976748;28;20088;-79
2022/03/31 06:55:42;;;;;;;31.20;17.52;;;;;;;;;;4975777;28;20094;-79
2022/03/31 06:58:08;;;;;;;30.98;16.70;;;;;;;;;;4971986;28;20030;-79
2022/03/31 07:00:33;;;;;;;28.58;17.52;;;;;;;;;;4986626;28;20043;-79
2022/03/31 07:02:59;;;;;;;30.17;18.25;;;;;;;;;;4975010;28;20049;-79
2022/03/31 07:05:24;;;;;;;33.45;18.33;;;;;;;;;;4976159;28;20046;-80
2022/03/31 07:07:50;;;;;;;31.42;20.00;;;;;;;;;;4980273;28;20034;-80
2022/03/31 07:10:15;;;;;;;37.70;21.58;;;;;;;;;;4974744;28;20093;-80
2022/03/31 07:12:41;;;;;;;29.42;17.52;;;;;;;;;;4958898;28;20054;-79
2022/03/31 07:15:06;;;;;;;28.90;16.70;;;;;;;;;;4975542;28;20023;-80
2022/03/31 07:17:31;;;;;;;34.70;17.88;;;;;;;;;;4975194;28;20484;-80
2022/03/31 07:19:56;;;;;;;30.23;17.48;;;;;;;;;;4976239;28;20038;-80
2022/03/31 07:22:22;;;;;;;28.00;16.80;;;;;;;;;;4990787;28;20066;-79
2022/03/31 07:24:48;;;;;;;31.70;17.80;;;;;;;;;;4975542;28;20031;-78
2022/03/31 07:27:14;;;;;;;34.00;19.08;;;;;;;;;;4975590;28;20046;-81
2022/03/31 07:29:40;;;;;;;36.08;20.10;;;;;;;;;;4975956;28;20039;-79
2022/03/31 07:32:05;;;;;;;26.13;16.65;;;;;;;;;;4990918;28;20035;-83
2022/03/31 07:34:30;;;;;;;33.63;17.48;;;;;;;;;;4974776;28;20070;-79
2022/03/31 07:36:56;;;;;;;30.83;17.98;;;;;;;;;;4975258;28;20043;-80
2022/03/31 07:39:21;;;;;;;30.77;17.80;;;;;;;;;;4975558;28;20035;-79
2022/03/31 07:41:47;;;;;;;30.25;16.65;;;;;;;;;;4975485;28;20491;-80
2022/03/31 07:44:12;;;;;;;28.35;17.42;;;;;;;;;;4975410;28;20066;-79
2022/03/31 07:46:37;;;;;;;29.00;17.85;;;;;;;;;;4975111;28;20097;-79
2022/03/31 07:49:02;;;;;;;30.23;18.17;;;;;;;;;;4975722;28;20030;-79
2022/03/31 07:51:29;;;;;;;32.83;18.85;;;;;;;;;;4974824;28;20105;-80
2022/03/31 07:53:54;;;;;;;31.73;18.45;;;;;;;;;;4975239;28;20053;-80
2022/03/31 07:56:20;;;;;;;30.25;17.83;;;;;;;;;;4975297;28;20117;-80
2022/03/31 07:58:45;;;;;;;31.67;17.58;;;;;;;;;;4977364;28;20415;-79
2022/03/31 08:01:11;;;;;;;31.13;18.63;;;;;;;;;;4977385;28;20107;-79
2022/03/31 08:03:38;;;;;;;26.85;15.65;;;;;;;;;;4976264;28;20098;-79
2022/03/31 08:06:03;;;;;;;27.27;14.48;;;;;;;;;;4990306;28;20035;-79
2022/03/31 08:08:28;;;;;;;29.65;15.93;;;;;;;;;;4971953;28;20534;-79
2022/03/31 08:10:54;;;;;;;26.60;15.07;;;;;;;;;;4974995;28;20031;-79
2022/03/31 08:13:19;;;;;;;26.73;15.25;;;;;;;;;;4977184;28;20043;-79
2022/03/31 08:15:44;;;;;;;29.48;16.02;;;;;;;;;;4975337;28;20067;-79
2022/03/31 08:18:10;;;;;;;33.85;17.90;;;;;;;;;;4977203;28;20027;-80
2022/03/31 08:20:35;;;;;;;46.08;20.55;;;;;;;;;;4975997;28;20513;-80
2022/03/31 08:23:01;;;;;;;30.27;16.23;;;;;;;;;;4976952;28;20030;-80
2022/03/31 08:25:26;;;;;;;25.95;15.93;;;;;;;;;;4976427;28;20030;-81
2022/03/31 08:27:51;;;;;;;24.08;13.93;;;;;;;;;;4975139;28;20074;-80
2022/03/31 08:30:18;;;;;;;25.75;15.07;;;;;;;;;;4976386;28;20050;-81
2022/03/31 08:32:46;;;;;;;24.30;14.95;;;;;;;;;;4979875;28;20037;-81
2022/03/31 08:35:11;;;;;;;25.98;15.40;;;;;;;;;;4994257;28;20085;-80
2022/03/31 08:37:36;;;;;;;26.80;15.30;;;;;;;;;;4995464;28;20098;-80
2022/03/31 08:40:01;;;;;;;24.20;14.15;;;;;;;;;;4995482;28;20038;-80
2022/03/31 08:42:27;;;;;;;25.20;15.50;;;;;;;;;;4995205;28;20069;-80
2022/03/31 08:44:52;;;;;;;25.67;15.85;;;;;;;;;;4992691;28;20045;-80
2022/03/31 08:47:17;;;;;;;28.55;15.30;;;;;;;;;;4995822;28;20023;-82
2022/03/31 08:49:43;;;;;;;28.35;16.38;;;;;;;;;;4993905;28;20099;-79
2022/03/31 08:52:09;;;;;;;29.20;15.55;;;;;;;;;;4995275;28;20048;-79
2022/03/31 08:54:34;;;;;;;31.10;16.27;;;;;;;;;;4992727;28;20126;-78
2022/03/31 08:56:59;;;;;;;28.52;15.93;;;;;;;;;;4995552;28;20077;-79
2022/03/31 08:59:25;;;;;;;30.50;16.02;;;;;;;;;;4988787;28;20042;-78
2022/03/31 09:01:51;;;;;;;27.10;16.08;;;;;;;;;;4975543;28;20049;-79
2022/03/31 09:04:16;;;;;;;31.85;17.42;;;;;;;;;;4974341;28;20030;-79
2022/03/31 09:06:41;;;;;;;33.22;18.48;;;;;;;;;;4967317;28;20407;-78
2022/03/31 09:09:07;;;;;;;44.80;20.98;;;;;;;;;;4956836;28;20031;-83
2022/03/31 09:11:32;;;;;;;38.72;19.38;;;;;;;;;;4987879;28;20113;-79
2022/03/31 09:13:58;;;;;;;37.50;19.67;;;;;;;;;;4986804;28;20039;-78
2022/03/31 09:16:23;;;;;;;40.85;19.58;;;;;;;;;;4954493;28;20046;-79
2022/03/31 09:18:48;;;;;;;32.83;17.67;;;;;;;;;;4956439;28;20031;-79
2022/03/31 09:21:15;;;;;;;30.23;16.73;;;;;;;;;;4955074;28;20035;-79
2022/03/31 09:23:41;;;;;;;33.03;17.20;;;;;;;;;;4956961;28;20107;-79
2022/03/31 09:26:08;;;;;;;29.75;17.15;;;;;;;;;;4970650;28;20114;-79
2022/03/31 09:28:33;;;;;;;34.95;17.67;;;;;;;;;;4955408;28;20031;-79
2022/03/31 09:30:58;;;;;;;27.50;16.08;;;;;;;;;;4956317;28;20106;-79
2022/03/31 09:33:23;;;;;;;30.00;19.23;;;;;;;;;;4955746;28;20047;-79
2022/03/31 09:35:49;;;;;;;49.22;23.02;;;;;;;;;;4955513;28;20027;-79
2022/03/31 09:38:14;;;;;;;39.55;21.02;;;;;;;;;;4956084;28;20403;-80
2022/03/31 09:40:39;;;;;;;41.10;20.05;;;;;;;;;;4956372;28;20039;-78
2022/03/31 09:43:04;;;;;;;35.03;20.00;;;;;;;;;;4956133;28;20123;-79
2022/03/31 09:45:30;;;;;;;32.42;17.13;;;;;;;;;;4955946;28;20043;-79
2022/03/31 09:47:57;;;;;;;42.50;21.27;;;;;;;;;;4955631;28;20050;-80
2022/03/31 09:50:22;;;;;;;37.90;18.90;;;;;;;;;;4954538;28;20035;-79
2022/03/31 09:52:47;;;;;;;35.40;17.92;;;;;;;;;;4987116;28;20048;-78
2022/03/31 09:55:13;;;;;;;35.90;18.88;;;;;;;;;;4956245;28;20122;-79
2022/03/31 09:57:38;;;;;;;35.83;19.02;;;;;;;;;;4993006;28;20070;-79
2022/03/31 10:00:03;;;;;;;26.25;14.88;;;;;;;;;;4978761;28;20065;-79
2022/03/31 10:02:37;;;;;;;;;;;;;;;;;;4979662;28;20050;-78
2022/03/31 10:05:02;;;;;;;27.38;14.55;;;;;;;;;;4978839;28;19913;-80
2022/03/31 10:07:27;;;;;;;30.38;15.77;;;;;;;;;;4978468;28;20046;-78
2022/03/31 10:09:52;;;;;;;22.52;13.70;;;;;;;;;;4977969;28;20049;-78
2022/03/31 10:12:18;;;;;;;26.33;15.00;;;;;;;;;;4979538;28;20453;-79
2022/03/31 10:14:43;;;;;;;24.52;14.38;;;;;;;;;;4978330;28;20571;-80
2022/03/31 10:17:09;;;;;;;26.17;13.88;;;;;;;;;;4977732;28;20039;-79
2022/03/31 10:19:38;;;;;;;26.45;14.23;;;;;;;;;;4979087;28;20045;-79
2022/03/31 10:22:03;;;;;;;23.83;14.70;;;;;;;;;;4979170;28;20030;-80
2022/03/31 10:24:47;;;;;;;27.25;13.98;;;;;;;;;;4978086;28;20048;-79
2022/03/31 10:27:12;;;;;;;22.77;13.18;;;;;;;;;;4979321;28;20059;-79
2022/03/31 10:29:38;;;;;;;20.85;12.48;;;;;;;;;;4977109;28;20026;-79
2022/03/31 10:32:03;;;;;;;25.58;13.32;;;;;;;;;;4978832;28;20619;-79
2022/03/31 10:34:28;;;;;;;23.45;12.52;;;;;;;;;;4978100;28;20050;-79
2022/03/31 10:36:54;;;;;;;22.83;13.13;;;;;;;;;;4977610;28;20034;-79
2022/03/31 10:39:19;;;;;;;21.73;12.95;;;;;;;;;;4977967;28;20510;-79
2022/03/31 10:41:45;;;;;;;20.98;12.98;;;;;;;;;;4978386;28;20064;-79
2022/03/31 10:44:10;;;;;;;20.38;12.35;;;;;;;;;;4977827;28;20061;-79
2022/03/31 10:46:36;;;;;;;16.90;11.23;;;;;;;;;;4979021;28;20501;-80
2022/03/31 10:49:01;;;;;;;22.27;12.38;;;;;;;;;;4977237;28;20070;-78
2022/03/31 10:51:26;;;;;;;21.88;13.25;;;;;;;;;;4978725;28;20109;-79
2022/03/31 10:53:52;;;;;;;24.50;14.15;;;;;;;;;;4978412;28;20043;-78
2022/03/31 10:56:18;;;;;;;17.25;9.95;;;;;;;;;;4977114;28;20031;-79
2022/03/31 10:58:44;;;;;;;17.25;9.23;;;;;;;;;;4978529;28;20031;-80
2022/03/31 11:01:09;;;;;;;18.20;10.25;;;;;;;;;;4978162;28;20442;-80
2022/03/31 11:03:34;;;;;;;18.25;10.13;;;;;;;;;;4993596;28;20038;-79
2022/03/31 11:06:01;;;;;;;17.77;10.48;;;;;;;;;;4977240;28;20038;-80
2022/03/31 11:08:26;;;;;;;16.20;9.30;;;;;;;;;;4978183;28;20564;-79
2022/03/31 11:10:54;;;;;;;14.18;8.13;;;;;;;;;;4977887;28;20042;-80
2022/03/31 11:13:20;;;;;;;18.90;9.18;;;;;;;;;;4977784;28;20380;-78
2022/03/31 11:15:45;;;;;;;13.85;8.60;;;;;;;;;;4977782;28;20066;-79
2022/03/31 11:18:11;;;;;;;17.05;10.00;;;;;;;;;;4992581;28;20558;-78
2022/03/31 11:20:36;;;;;;;19.77;10.90;;;;;;;;;;4978398;28;20058;-80
2022/03/31 11:23:06;;;;;;;22.02;10.60;;;;;;;;;;4978026;28;20145;-79
2022/03/31 11:25:31;;;;;;;19.20;11.02;;;;;;;;;;4977598;28;20427;-78
2022/03/31 11:27:58;;;;;;;21.23;12.43;;;;;;;;;;4977793;28;20566;-78
2022/03/31 11:30:23;;;;;;;19.80;11.75;;;;;;;;;;4977707;28;20050;-79
2022/03/31 11:32:48;;;;;;;26.25;15.77;;;;;;;;;;4976743;28;20030;-78
2022/03/31 11:35:14;;;;;;;20.52;12.68;;;;;;;;;;4975452;28;20045;-79
2022/03/31 11:37:39;;;;;;;19.88;12.00;;;;;;;;;;4976900;28;20042;-79
2022/03/31 11:40:04;;;;;;;21.15;11.65;;;;;;;;;;4977168;28;20035;-79
2022/03/31 11:42:29;;;;;;;21.05;12.15;;;;;;;;;;4975599;28;20406;-79
2022/03/31 11:44:55;;;;;;;21.02;12.18;;;;;;;;;;4976342;28;20101;-78
2022/03/31 11:47:20;;;;;;;18.83;11.80;;;;;;;;;;4977097;28;20039;-79
2022/03/31 11:49:46;;;;;;;17.98;11.70;;;;;;;;;;4976263;28;20041;-80
2022/03/31 11:52:11;;;;;;;20.88;11.95;;;;;;;;;;4975719;28;20109;-79
2022/03/31 11:54:36;;;;;;;22.25;11.90;;;;;;;;;;4975221;28;20109;-79
2022/03/31 11:57:02;;;;;;;21.67;13.55;;;;;;;;;;4975140;28;20043;-78
2022/03/31 11:59:28;;;;;;;23.38;11.65;;;;;;;;;;4975934;28;20118;-79
2022/03/31 12:01:53;;;;;;;20.00;11.52;;;;;;;;;;4976837;28;20478;-78
2022/03/31 12:04:19;;;;;;;19.35;10.85;;;;;;;;;;4975055;28;20062;-79
2022/03/31 12:06:44;;;;;;;18.27;10.23;;;;;;;;;;4976423;28;20425;-79
2022/03/31 12:09:09;;;;;;;17.92;11.23;;;;;;;;;;4975961;28;20579;-78
2022/03/31 12:11:35;;;;;;;23.20;15.63;;;;;;;;;;4975435;28;20149;-79
2022/03/31 12:14:01;;;;;;;16.58;9.98;;;;;;;;;;4976149;28;20049;-78
2022/03/31 12:16:26;;;;;;;23.27;12.80;;;;;;;;;;4991790;28;20490;-78
2022/03/31 12:18:51;;;;;;;18.92;10.43;;;;;;;;;;4974831;28;20035;-78
2022/03/31 12:21:17;;;;;;;21.42;11.05;;;;;;;;;;4975558;28;20101;-79
2022/03/31 12:23:42;;;;;;;19.52;10.70;;;;;;;;;;4975222;28;20039;-79
2022/03/31 12:26:07;;;;;;;20.45;11.02;;;;;;;;;;4976128;28;20410;-79
2022/03/31 12:28:32;;;;;;;20.15;11.23;;;;;;;;;;4976826;28;20031;-79
2022/03/31 12:30:58;;;;;;;18.92;11.45;;;;;;;;;;4975182;28;20030;-78
2022/03/31 12:33:23;;;;;;;19.35;11.15;;;;;;;;;;4975464;28;20448;-78
2022/03/31 12:35:48;;;;;;;18.95;10.80;;;;;;;;;;4975756;28;20042;-79
2022/03/31 12:38:13;;;;;;;20.90;11.30;;;;;;;;;;4976708;28;20042;-78
2022/03/31 12:40:39;;;;;;;20.80;12.60;;;;;;;;;;4975038;28;20086;-79
2022/03/31 12:43:04;;;;;;;22.17;13.32;;;;;;;;;;4975613;28;20113;-79
2022/03/31 12:45:29;;;;;;;18.13;11.25;;;;;;;;;;4975393;28;20117;-79
2022/03/31 12:47:55;;;;;;;25.63;12.00;;;;;;;;;;4976037;28;20061;-79
2022/03/31 12:50:20;;;;;;;19.75;11.07;;;;;;;;;;4974202;28;20038;-78
2022/03/31 12:52:45;;;;;;;22.85;12.60;;;;;;;;;;4976107;28;20125;-79
2022/03/31 12:55:10;;;;;;;21.55;12.27;;;;;;;;;;4973923;28;20039;-78
2022/03/31 12:57:36;;;;;;;17.90;10.60;;;;;;;;;;4999604;23;20046;-85
2022/03/31 13:00:01;;;;;;;20.20;11.50;;;;;;;;;;4957906;28;20309;-84
2022/03/31 13:02:26;;;;;;;19.70;10.95;;;;;;;;;;4939304;28;20035;-83
2022/03/31 13:04:51;;;;;;;18.67;10.75;;;;;;;;;;4953809;28;20039;-85
2022/03/31 13:07:18;;;;;;;19.83;11.00;;;;;;;;;;4976937;28;20052;-83
2022/03/31 13:09:43;;;;;;;17.45;10.27;;;;;;;;;;4950584;28;20034;-84
2022/03/31 13:12:12;;;;;;;17.58;10.02;;;;;;;;;;4965230;28;20046;-85
2022/03/31 13:14:37;;;;;;;17.80;10.35;;;;;;;;;;4955178;28;20038;-86
2022/03/31 13:17:04;;;;;;;17.67;10.30;;;;;;;;;;4943317;28;20031;-84
2022/03/31 13:19:29;;;;;;;21.30;10.55;;;;;;;;;;4976388;28;20066;-84
2022/03/31 13:21:54;;;;;;;19.17;10.02;;;;;;;;;;4966305;28;20170;-86
2022/03/31 13:24:19;;;;;;;19.30;9.90;;;;;;;;;;4957059;28;20407;-84
2022/03/31 13:26:45;;;;;;;20.58;11.10;;;;;;;;;;4966372;28;20506;-84
2022/03/31 13:29:11;;;;;;;20.55;11.05;;;;;;;;;;4974893;28;20043;-86
2022/03/31 13:31:40;;;;;;;28.15;13.80;;;;;;;;;;4974898;28;20035;-82
2022/03/31 13:34:05;;;;;;;22.90;11.15;;;;;;;;;;4974416;28;20387;-83
2022/03/31 13:36:30;;;;;;;18.60;10.05;;;;;;;;;;4975588;28;20035;-85
2022/03/31 13:38:56;;;;;;;20.17;9.80;;;;;;;;;;4976394;28;20035;-83
2022/03/31 13:41:22;;;;;;;23.40;11.75;;;;;;;;;;4975674;28;20089;-85
2022/03/31 13:43:47;;;;;;;16.70;9.60;;;;;;;;;;4967747;28;20035;-85
2022/03/31 13:46:12;;;;;;;22.60;10.95;;;;;;;;;;4955408;29;20109;-83
2022/03/31 13:48:38;;;;;;;26.85;13.40;;;;;;;;;;4936068;29;20071;-85
2022/03/31 13:51:03;;;;;;;21.67;10.70;;;;;;;;;;4935554;29;20067;-86
2022/03/31 13:53:43;;;;;;;16.30;8.75;;;;;;;;;;4934720;29;20489;-84
2022/03/31 13:56:09;;;;;;;18.33;10.10;;;;;;;;;;4935636;29;20186;-84
2022/03/31 14:01:19;;;;;;;15.98;8.52;;;;;;;;;;4937040;28;20059;-83
2022/03/31 14:03:44;;;;;;;14.70;8.55;;;;;;;;;;4951214;29;20091;-84
2022/03/31 14:06:09;;;;;;;11.75;6.63;;;;;;;;;;4920441;29;20393;-84
2022/03/31 14:08:35;;;;;;;11.35;6.70;;;;;;;;;;4935674;29;20032;-84
2022/03/31 14:11:00;;;;;;;12.68;6.43;;;;;;;;;;4937489;29;20668;-85
2022/03/31 14:13:25;;;;;;;11.25;6.30;;;;;;;;;;4937059;29;20110;-85